Stations météo

réclame
Mon MeteoGroup
Retie, Belgique (6464): Température de l'air & dewpoint: 18.11.2017 15:00:00 - 24.11.2017 15:00:00 (CET)Retie, Belgique (6464): Vitesse du vent & gusts: 18.11.2017 15:00:00 - 24.11.2017 15:00:00 (CET)Retie, Belgique (6464): Direction du vent: 18.11.2017 15:00:00 - 24.11.2017 15:00:00 (CET)Retie, Belgique (6464): reduced air pressure: 18.11.2017 15:00:00 - 24.11.2017 15:00:00 (CET)Retie, Belgique (6464): Ensoleillement: 18.11.2017 15:00:00 - 24.11.2017 15:00:00 (CET)Retie, Belgique (6464): Quantités de précipitations: 18.11.2017 15:00:00 - 24.11.2017 15:00:00 (CET)
Date & Time tt [°C] td [°C] ff [km/h] ff [knt] fx [km/h] fx [knt] dd ppp [hPa] sd [min] rr [mm]
24.11.2017 15:00:00 - - - - - - - - - -
24.11.2017 14:00:00 9,7 6,3 9 5 14 8 SW 1011,8 32 0,0
24.11.2017 13:00:00 8,8 6,9 7 4 17 9 W 1011,5 3 0,0
24.11.2017 12:00:00 8,3 7,0 4 2 9 5 WSW 1011,4 0 0,0
24.11.2017 11:00:00 7,7 6,9 6 3 9 5 WSW 1010,8 0 0,0
24.11.2017 10:00:00 7,4 6,9 5 3 10 6 WSW 1010,2 0 0,1
24.11.2017 09:00:00 7,2 6,7 4 2 8 4 WSW 1009,3 0 0,0
24.11.2017 08:00:00 7,0 6,5 4 2 10 6 SW 1008,2 0 0,0
24.11.2017 07:00:00 7,2 6,7 4 2 10 5 WNW 1007,0 0 0,9
24.11.2017 06:00:00 7,7 6,7 4 2 17 9 W 1007,3 0 2,5
24.11.2017 05:00:00 7,9 7,4 4 2 11 6 NW 1007,0 0 1,7
24.11.2017 04:00:00 8,5 7,3 4 2 12 7 SSE 1007,0 0 1,0
24.11.2017 03:00:00 9,3 7,5 8 5 13 7 SSW 1008,2 0 0,7
24.11.2017 02:00:00 9,4 7,2 6 3 12 7 S 1008,3 0 0,0
24.11.2017 01:00:00 9,0 6,5 7 4 14 8 SSW 1009,3 0 0,0
24.11.2017 00:00:00 9,2 6,5 7 4 12 7 S 1009,4 0 0,0
23.11.2017 23:00:00 8,4 5,8 4 2 14 8 S 1009,7 0 0,0
23.11.2017 22:00:00 9,2 5,7 9 5 16 9 SSW 1009,6 0 0,0
23.11.2017 21:00:00 9,5 5,4 11 6 19 10 SSW 1009,3 0 0,0
23.11.2017 20:00:00 9,4 5,3 9 5 23 12 SW 1008,5 0 0,0
23.11.2017 19:00:00 10,5 4,7 18 10 32 17 WSW 1007,9 0 0,0
23.11.2017 18:00:00 11,4 7,2 13 7 23 12 SW 1007,2 0 0,0
23.11.2017 17:00:00 12,1 7,6 13 7 37 20 WSW 1006,2 0 0,0
23.11.2017 16:00:00 12,2 9,1 10 5 32 17 W 1005,1 3 0,0
23.11.2017 15:00:00 12,5 10,2 19 11 48 26 WSW 1003,7 2 4,0
23.11.2017 14:00:00 15,4 9,7 25 14 44 24 SSW 1002,0 6 0,0
23.11.2017 13:00:00 14,9 9,4 22 12 56 31 SSW 1001,7 6 0,0
23.11.2017 12:00:00 14,8 8,6 25 14 51 28 SSW 1000,9 0 0,0
23.11.2017 11:00:00 14,3 8,1 29 16 50 27 SSW 1000,2 0 0,2
23.11.2017 10:00:00 14,6 7,3 33 18 56 31 SSW 999,0 0 0,0
23.11.2017 09:00:00 14,3 6,5 25 14 56 30 SSW 998,2 0 0,0
23.11.2017 08:00:00 13,7 5,6 24 13 49 26 S 997,7 0 0,0
23.11.2017 07:00:00 12,8 5,0 22 12 45 24 S 997,5 0 0,0
23.11.2017 06:00:00 12,7 4,7 24 13 40 22 S 998,1 0 0,0
23.11.2017 05:00:00 11,9 4,3 19 10 36 20 S 998,8 0 0,0
23.11.2017 04:00:00 12,0 3,8 21 12 39 21 S 999,3 0 0,0
23.11.2017 03:00:00 12,1 3,8 16 9 34 18 S 999,7 0 0,0
23.11.2017 02:00:00 12,2 3,6 16 9 34 19 S 999,8 0 0,0
23.11.2017 01:00:00 12,3 3,4 18 10 31 17 S 1000,4 0 0,0
23.11.2017 00:00:00 11,8 3,4 13 7 26 14 S 1001,1 0 0,0
22.11.2017 23:00:00 10,5 3,3 14 8 25 13 SSE 1001,4 0 0,0
22.11.2017 22:00:00 10,4 3,6 15 8 24 13 S 1002,0 0 0,0
22.11.2017 21:00:00 9,5 4,2 12 7 23 12 S 1002,8 0 0,0
22.11.2017 20:00:00 10,3 4,7 16 9 27 15 S 1003,2 0 0,0
22.11.2017 19:00:00 10,2 5,1 18 10 29 15 S 1003,7 0 0,0
22.11.2017 18:00:00 10,8 5,7 14 8 31 17 S 1004,2 0 0,0
22.11.2017 17:00:00 12,2 5,8 18 10 33 18 S 1004,7 22 0,0
22.11.2017 16:00:00 13,0 6,8 17 9 29 16 S 1005,2 60 0,0
22.11.2017 15:00:00 - - - - - - - - 30 -
22.11.2017 14:00:00 13,7 7,5 15 8 29 16 S 1006,6 60 0,0
22.11.2017 13:00:00 13,4 7,1 18 10 39 21 SSW 1007,1 60 0,0
22.11.2017 12:00:00 12,0 7,4 14 7 31 17 SSW 1007,8 60 0,0
22.11.2017 11:00:00 11,0 7,2 18 10 38 21 S 1008,2 36 0,0
22.11.2017 10:00:00 10,9 7,3 19 10 35 19 SSW 1008,2 0 0,0
22.11.2017 09:00:00 10,9 7,5 20 11 36 20 SSW 1008,2 0 0,0
22.11.2017 08:00:00 11,0 7,4 20 11 34 19 SSW 1007,9 0 0,0
22.11.2017 07:00:00 11,0 7,4 18 10 34 18 SSW 1007,7 0 0,0
22.11.2017 06:00:00 11,0 7,4 19 10 34 19 SSW 1007,9 0 0,0
22.11.2017 05:00:00 11,0 7,5 18 10 36 19 SSW 1008,2 0 0,0
22.11.2017 04:00:00 11,1 7,4 18 10 34 18 SSW 1008,7 0 0,0
22.11.2017 03:00:00 11,0 7,4 17 9 34 18 SSW 1008,9 0 0,0
22.11.2017 02:00:00 10,8 7,5 16 9 35 19 SSW 1009,0 0 0,0
22.11.2017 01:00:00 10,5 7,5 18 10 34 19 SSW 1009,7 0 0,0
22.11.2017 00:00:00 10,5 7,4 17 9 34 19 SSW 1010,1 0 0,0
21.11.2017 23:00:00 10,5 7,3 16 9 31 17 SSW 1010,3 0 0,0
21.11.2017 22:00:00 10,4 7,3 18 10 34 18 SSW 1010,7 0 0,0
21.11.2017 21:00:00 10,4 7,5 18 10 34 18 SSW 1010,9 0 0,0
21.11.2017 20:00:00 10,3 7,5 18 10 35 19 SSW 1011,0 0 0,0
21.11.2017 19:00:00 10,2 7,7 18 10 29 16 SSW 1011,8 0 0,0
21.11.2017 18:00:00 10,5 8,1 15 8 30 16 SSW 1011,9 0 0,0
21.11.2017 17:00:00 10,7 8,2 16 8 32 17 SW 1012,0 0 0,0
21.11.2017 16:00:00 10,8 8,5 16 8 29 16 SW 1012,1 0 0,0
21.11.2017 15:00:00 - - - - - - - - 0 -
21.11.2017 14:00:00 11,0 9,3 17 9 32 17 SW 1012,7 0 0,0
21.11.2017 13:00:00 10,8 9,5 22 12 - - SW 1012,8 0 0,0
21.11.2017 12:00:00 10,9 10,2 19 10 32 17 SW 1013,2 0 0,3
21.11.2017 11:00:00 11,3 10,7 16 9 27 15 SW 1013,1 0 0,5
21.11.2017 10:00:00 11,4 10,8 13 7 29 16 SW 1012,8 0 0,5
21.11.2017 09:00:00 11,2 10,7 13 7 23 12 SW 1012,5 0 0,8
21.11.2017 08:00:00 11,2 10,7 10 5 18 10 SW 1012,4 0 1,1
21.11.2017 07:00:00 11,1 10,7 7 4 16 9 SW 1012,4 0 0,5
21.11.2017 06:00:00 10,9 10,5 9 5 17 9 SW 1012,6 0 0,3
21.11.2017 05:00:00 11,1 10,5 10 5 20 11 SW 1012,8 0 0,0
21.11.2017 04:00:00 11,1 10,4 11 6 22 12 SW 1012,6 0 0,0
21.11.2017 03:00:00 11,2 10,5 10 5 19 10 SW 1012,8 0 0,0
21.11.2017 02:00:00 11,1 10,4 12 6 21 11 SW 1012,8 0 0,0
21.11.2017 01:00:00 10,9 10,3 11 6 21 11 WSW 1012,8 0 0,9
21.11.2017 00:00:00 10,6 9,8 11 6 24 13 SW 1012,7 0 0,0
20.11.2017 23:00:00 10,6 9,8 15 8 26 14 SW 1012,6 0 0,4
20.11.2017 22:00:00 10,4 9,6 15 8 28 15 SW 1012,6 0 0,0
20.11.2017 21:00:00 10,2 9,4 16 9 31 17 SW 1012,7 0 0,9
20.11.2017 20:00:00 9,8 9,1 16 8 32 17 SW 1012,6 0 1,1
20.11.2017 19:00:00 9,5 9,0 13 7 31 17 SW 1012,5 0 1,0
20.11.2017 18:00:00 9,2 8,6 16 9 35 19 SW 1012,7 0 0,4
20.11.2017 17:00:00 8,8 8,1 18 10 34 18 SW 1013,1 0 0,6
20.11.2017 16:00:00 7,8 7,3 14 8 32 18 SW 1013,8 0 0,3
20.11.2017 15:00:00 7,1 6,6 14 7 27 15 SSW 1014,6 0 0,7
20.11.2017 14:00:00 6,4 5,7 14 8 26 14 SSW 1015,7 0 0,4
20.11.2017 13:00:00 5,5 5,0 13 7 24 13 S 1016,8 0 0,7
20.11.2017 12:00:00 4,9 4,1 13 7 23 13 S 1017,8 0 0,6
20.11.2017 11:00:00 4,5 3,1 13 7 23 13 S 1018,7 0 0,0
20.11.2017 10:00:00 4,2 2,7 10 5 19 10 S 1019,5 0 0,5
20.11.2017 09:00:00 4,0 2,4 8 5 16 9 S 1020,4 0 0,7
20.11.2017 08:00:00 4,3 2,0 6 3 16 9 SW 1021,3 0 0,0
20.11.2017 07:00:00 4,2 1,9 7 4 18 10 SW 1021,1 0 0,0
20.11.2017 06:00:00 4,1 1,8 10 6 17 9 SW 1021,3 0 0,0
20.11.2017 05:00:00 3,9 2,0 9 5 18 10 SSW 1021,5 0 0,0
20.11.2017 04:00:00 3,8 2,2 7 4 13 7 SW 1022,2 0 0,0
20.11.2017 03:00:00 3,7 2,2 7 4 13 7 SW 1022,4 0 0,0
20.11.2017 02:00:00 3,4 2,1 6 3 14 8 SW 1022,8 0 0,0
20.11.2017 01:00:00 3,6 2,2 7 4 15 8 SW 1023,3 0 0,0
20.11.2017 00:00:00 3,1 2,0 6 4 13 7 SW 1023,3 0 0,0
19.11.2017 23:00:00 3,6 2,2 10 5 19 11 WSW 1023,5 0 0,0
19.11.2017 22:00:00 4,2 2,8 9 5 16 8 WSW 1023,5 0 0,0
19.11.2017 21:00:00 4,6 3,5 8 4 16 9 SW 1022,8 0 0,0
19.11.2017 20:00:00 6,0 4,0 10 5 24 13 WSW 1022,4 0 0,4
19.11.2017 19:00:00 6,3 4,3 11 6 22 12 W 1022,3 0 0,0
19.11.2017 18:00:00 6,4 3,4 11 6 23 12 WSW 1021,7 0 0,0
19.11.2017 17:00:00 7,0 3,4 11 6 22 12 W 1021,3 0 0,0
19.11.2017 16:00:00 7,7 4,7 12 7 27 14 WSW 1020,8 31 0,0
19.11.2017 15:00:00 8,3 4,1 12 7 32 18 W 1020,6 31 0,0
19.11.2017 14:00:00 8,1 4,0 13 7 29 16 W 1020,6 5 0,0
19.11.2017 13:00:00 8,8 4,1 11 6 33 18 W 1020,3 47 0,0
19.11.2017 12:00:00 8,2 5,3 15 8 26 14 WSW 1020,2 57 0,0
19.11.2017 11:00:00 7,0 4,8 11 6 20 11 WSW 1020,0 60 0,0
19.11.2017 10:00:00 5,1 3,8 11 6 21 11 WSW 1019,5 20 0,0
19.11.2017 09:00:00 3,8 3,0 6 4 11 6 SW 1019,2 0 0,0
19.11.2017 08:00:00 3,9 3,1 8 4 10 5 SW 1018,6 0 0,6
19.11.2017 07:00:00 3,5 2,5 0 0 9 5 N 1018,3 0 0,0
19.11.2017 06:00:00 3,3 1,8 6 3 11 6 WSW 1017,9 0 0,0
19.11.2017 05:00:00 2,4 1,1 4 2 9 5 SW 1017,6 0 0,0
19.11.2017 04:00:00 4,6 2,6 4 2 14 8 W 1017,4 0 0,0
19.11.2017 03:00:00 4,7 3,5 4 2 11 6 W 1017,4 0 0,0
19.11.2017 02:00:00 5,5 4,5 6 4 13 7 WSW 1016,9 0 0,1
19.11.2017 01:00:00 5,9 4,9 7 4 14 8 W 1016,9 0 0,0
19.11.2017 00:00:00 6,5 5,6 9 5 19 10 WSW 1016,8 0 0,4
18.11.2017 23:00:00 6,3 5,1 7 4 16 8 WSW 1017,2 0 0,0
18.11.2017 22:00:00 6,7 5,1 9 5 23 13 WSW 1017,3 0 0,0
18.11.2017 21:00:00 7,3 6,1 14 7 25 13 WSW 1017,8 0 0,4
18.11.2017 20:00:00 7,4 5,8 14 8 24 13 SW 1017,8 0 0,0
18.11.2017 19:00:00 7,7 5,7 14 8 22 12 WSW 1018,2 0 0,0
18.11.2017 18:00:00 7,6 5,4 13 7 21 12 WSW 1018,5 0 0,0
18.11.2017 17:00:00 7,3 5,4 13 7 25 14 WSW 1019,0 0 1,1
18.11.2017 16:00:00 7,6 4,9 13 7 28 15 WSW 1019,1 0 0,2
18.11.2017 15:00:00 7,4 3,8 13 7 31 17 WSW 1019,6 7 0,0

tt = Température de l'air
td = dewpoint
ff = Vitesse du vent
fx = gusts
dd = Direction du vent
ppp = reduced air pressure
sd = Ensoleillement
rr = Quantités de précipitations

stations d'obs. à proximité